createdAt,value
2023-03-28T00:08:18.876Z,2.53
2023-03-28T00:13:23.463Z,2.15
2023-03-28T00:18:27.390Z,2.75
2023-03-28T00:23:34.171Z,2.58
2023-03-28T00:28:38.354Z,2.70
2023-03-28T00:33:42.746Z,2.47
2023-03-28T00:38:49.255Z,2.22
2023-03-28T00:43:55.514Z,2.28
2023-03-28T00:49:01.529Z,1.85
2023-03-28T00:54:13.414Z,2.08
2023-03-28T00:59:18.956Z,1.60
2023-03-28T01:04:24.918Z,1.70
2023-03-28T01:09:28.566Z,1.42
2023-03-28T01:14:31.819Z,1.27
2023-03-28T01:20:08.239Z,1.17
2023-03-28T01:25:22.656Z,1.20
2023-03-28T01:30:30.361Z,1.10
2023-03-28T01:36:33.772Z,0.90
2023-03-28T01:42:04.886Z,1.10
2023-03-28T01:47:20.197Z,0.90
2023-03-28T01:52:51.457Z,1.02
2023-03-28T01:58:04.518Z,0.90
2023-03-28T02:03:25.473Z,0.90
2023-03-28T02:08:35.180Z,1.02
2023-03-28T02:13:58.565Z,1.42
2023-03-28T02:19:25.309Z,1.50
2023-03-28T02:25:03.364Z,1.50
2023-03-28T02:30:24.225Z,1.77
2023-03-28T02:35:34.288Z,1.52
2023-03-28T02:40:57.261Z,1.50
2023-03-28T02:46:27.926Z,1.77
2023-03-28T02:51:41.984Z,1.60
2023-03-28T02:56:57.325Z,2.10
2023-03-28T03:02:17.260Z,1.92
2023-03-28T03:07:20.589Z,2.20
2023-03-28T03:12:24.361Z,1.70
2023-03-28T03:17:32.401Z,2.13
2023-03-28T03:22:36.696Z,2.72
2023-03-28T03:32:46.478Z,2.00
2023-03-28T03:37:49.332Z,2.20
2023-03-28T03:42:52.257Z,2.15
2023-03-28T03:47:57.746Z,2.40
2023-03-28T03:53:01.336Z,2.27
2023-03-28T03:58:12.377Z,2.42
2023-03-28T04:03:24.308Z,2.47
2023-03-28T04:08:29.433Z,3.10
2023-03-28T04:13:32.388Z,3.23
2023-03-28T04:18:41.690Z,2.75
2023-03-28T04:23:44.597Z,2.80
2023-03-28T04:29:10.747Z,2.95
2023-03-28T04:34:16.046Z,3.20
2023-03-28T04:39:36.044Z,3.38
2023-03-28T04:45:09.017Z,4.03
2023-03-28T04:50:13.543Z,3.40
2023-03-28T04:55:17.705Z,3.70
2023-03-28T05:00:23.443Z,3.90
2023-03-28T05:05:37.851Z,3.78
2023-03-28T05:10:45.890Z,4.20
2023-03-28T05:15:52.912Z,3.20
2023-03-28T05:21:17.634Z,3.25
2023-03-28T05:26:20.518Z,3.00
2023-03-28T05:31:27.682Z,3.08
2023-03-28T05:36:46.918Z,3.10
2023-03-28T05:42:02.402Z,2.75
2023-03-28T05:47:05.430Z,8.50
2023-03-28T05:52:11.557Z,8.40
2023-03-28T05:57:17.616Z,6.15
2023-03-28T06:02:22.019Z,6.35
2023-03-28T06:07:35.218Z,8.57
2023-03-28T06:12:49.511Z,5.90
2023-03-28T06:17:52.852Z,7.25
2023-03-28T06:22:58.800Z,9.60
2023-03-28T06:28:01.701Z,6.47
2023-03-28T06:33:07.174Z,6.22
2023-03-28T06:43:14.955Z,9.68
2023-03-28T06:48:22.562Z,5.10
2023-03-28T06:53:54.254Z,4.90
2023-03-28T06:59:01.019Z,5.75
2023-03-28T07:04:07.548Z,5.32
2023-03-28T07:09:12.241Z,6.07
2023-03-28T07:14:22.803Z,5.40
2023-03-28T07:19:28.517Z,3.10
2023-03-28T07:24:32.031Z,3.75
2023-03-28T07:29:41.590Z,4.22
2023-03-28T07:34:45.375Z,2.90
2023-03-28T07:39:57.425Z,3.00
2023-03-28T07:45:02.227Z,8.98
2023-03-28T07:50:06.604Z,6.35
2023-03-28T07:55:12.223Z,3.00
2023-03-28T08:00:18.701Z,2.58
2023-03-28T08:05:49.967Z,5.40
2023-03-28T08:10:52.717Z,3.10
2023-03-28T08:15:58.858Z,2.50
2023-03-28T08:21:03.998Z,4.68
2023-03-28T08:26:13.046Z,4.90
2023-03-28T08:31:23.823Z,3.13
2023-03-28T08:36:29.445Z,2.95
2023-03-28T08:41:59.092Z,4.20
2023-03-28T08:47:29.081Z,9.80
2023-03-28T08:52:32.097Z,12.20
2023-03-28T08:57:36.703Z,10.85
2023-03-28T09:02:39.436Z,5.07
2023-03-28T09:08:00.567Z,2.42
2023-03-28T09:13:08.793Z,4.15
2023-03-28T09:18:57.748Z,5.80
2023-03-28T09:24:10.661Z,4.10
2023-03-28T09:29:36.956Z,3.20
2023-03-28T09:34:42.145Z,7.82
2023-03-28T09:39:49.881Z,5.80
2023-03-28T09:45:05.216Z,6.53
2023-03-28T09:50:40.142Z,21.77
2023-03-28T09:55:54.641Z,22.77
2023-03-28T10:01:24.446Z,3.20
2023-03-28T10:06:48.521Z,8.90
2023-03-28T10:11:55.059Z,5.38
2023-03-28T10:17:12.868Z,4.88
2023-03-28T10:22:25.998Z,6.55
2023-03-28T10:27:32.994Z,6.63
2023-03-28T10:32:36.942Z,10.10
2023-03-28T10:37:59.717Z,6.53
2023-03-28T10:48:57.922Z,5.07
2023-03-28T10:54:23.861Z,5.28
2023-03-28T10:59:38.479Z,4.20
2023-03-28T11:05:23.159Z,4.20
2023-03-28T11:11:00.664Z,8.23
2023-03-28T11:16:39.376Z,3.92
2023-03-28T11:22:01.001Z,3.20
2023-03-28T11:27:16.041Z,11.63
2023-03-28T11:33:10.795Z,4.78
2023-03-28T11:38:22.538Z,11.15
2023-03-28T11:43:35.400Z,16.52
2023-03-28T11:48:47.062Z,3.97
2023-03-28T11:53:58.812Z,4.60
2023-03-28T11:59:14.257Z,29.88
2023-03-28T12:04:29.924Z,4.80
2023-03-28T12:10:04.345Z,5.13
2023-03-28T12:15:15.584Z,4.40
2023-03-28T12:20:49.937Z,5.03
2023-03-28T12:26:18.507Z,3.50
2023-03-28T12:31:39.198Z,2.95
2023-03-28T12:37:04.375Z,5.07
2023-03-28T12:42:15.049Z,5.43
2023-03-28T12:47:25.016Z,5.20
2023-03-28T12:52:33.248Z,13.93
2023-03-28T12:57:41.626Z,24.50
2023-03-28T13:03:26.808Z,7.75
2023-03-28T13:08:44.799Z,11.35
2023-03-28T13:13:59.269Z,11.18
2023-03-28T13:19:06.858Z,7.57
2023-03-28T13:24:34.022Z,7.95
2023-03-28T13:29:51.257Z,9.57
2023-03-28T13:34:58.087Z,6.00
2023-03-28T13:40:01.461Z,3.00
2023-03-28T13:45:21.711Z,6.35
2023-03-28T13:50:27.022Z,4.25
2023-03-28T13:55:29.816Z,2.50
2023-03-28T14:00:32.801Z,2.53
2023-03-28T14:05:43.918Z,1.70
2023-03-28T14:10:47.180Z,4.50
2023-03-28T14:15:52.400Z,8.88
2023-03-28T14:20:58.146Z,3.92
2023-03-28T14:26:19.357Z,10.88
2023-03-28T14:31:34.130Z,5.15
2023-03-28T14:37:04.148Z,3.90
2023-03-28T14:42:10.695Z,8.07
2023-03-28T14:47:33.867Z,7.68
2023-03-28T14:52:41.485Z,4.30
2023-03-28T14:57:45.661Z,6.40
2023-03-28T15:02:48.985Z,14.82
2023-03-28T15:08:01.339Z,7.88
2023-03-28T15:13:18.350Z,4.20
2023-03-28T15:18:27.142Z,6.03
2023-03-28T15:23:36.610Z,6.50
2023-03-28T15:28:40.780Z,10.05
2023-03-28T15:33:46.415Z,13.50
2023-03-28T15:38:50.695Z,7.72
2023-03-28T15:44:00.456Z,15.02
2023-03-28T15:49:05.701Z,10.35
2023-03-28T15:54:14.598Z,14.05
2023-03-28T15:59:39.587Z,26.42
2023-03-28T16:05:06.476Z,5.18
2023-03-28T16:10:09.488Z,7.10
2023-03-28T16:15:32.141Z,10.90
2023-03-28T16:20:50.866Z,11.63
2023-03-28T16:25:53.661Z,7.83
2023-03-28T16:30:56.652Z,12.25
2023-03-28T16:35:59.624Z,12.33
2023-03-28T16:41:07.845Z,9.85
2023-03-28T16:46:12.415Z,8.63
2023-03-28T16:51:16.363Z,14.70
2023-03-28T16:56:19.401Z,22.20
2023-03-28T17:01:30.378Z,15.00
2023-03-28T17:06:33.205Z,69.32
2023-03-28T17:11:36.421Z,26.67
2023-03-28T17:16:42.253Z,18.70
2023-03-28T17:21:46.049Z,15.57
2023-03-28T17:31:53.031Z,15.95
2023-03-28T17:36:57.614Z,50.88
2023-03-28T17:42:00.300Z,40.38
2023-03-28T17:47:03.617Z,35.80
2023-03-28T17:52:10.573Z,25.30
2023-03-28T17:57:14.486Z,28.38
2023-03-28T18:02:20.513Z,40.47
2023-03-28T18:07:35.357Z,33.20
2023-03-28T18:12:41.890Z,25.88
2023-03-28T18:17:45.445Z,26.08
2023-03-28T18:22:48.042Z,25.23
2023-03-28T18:27:51.347Z,26.13
2023-03-28T18:32:54.519Z,27.85
2023-03-28T18:37:59.651Z,31.73
2023-03-28T18:43:02.682Z,42.03
2023-03-28T18:48:06.396Z,50.83
2023-03-28T18:53:09.498Z,88.25
2023-03-28T18:58:13.832Z,116.53
2023-03-28T19:03:18.870Z,123.00
2023-03-28T19:08:26.951Z,152.68
2023-03-28T19:13:29.847Z,129.38
2023-03-28T19:18:33.728Z,106.97
2023-03-28T19:23:39.689Z,115.68
2023-03-28T19:28:42.709Z,148.65
2023-03-28T19:33:46.042Z,101.32
2023-03-28T19:38:48.875Z,64.03
2023-03-28T19:43:52.059Z,45.55
2023-03-28T19:48:54.922Z,37.43
2023-03-28T19:53:57.394Z,35.78
2023-03-28T19:59:00.270Z,39.70
2023-03-28T20:04:03.069Z,29.23
2023-03-28T20:09:05.785Z,40.20
2023-03-28T20:14:09.516Z,38.77
2023-03-28T20:19:12.631Z,78.50
2023-03-28T20:24:18.372Z,62.47
2023-03-28T20:29:21.085Z,32.88
2023-03-28T20:34:23.826Z,27.50
2023-03-28T20:39:29.040Z,23.43
2023-03-28T20:44:38.580Z,21.73
2023-03-28T20:49:46.632Z,21.50
2023-03-28T20:54:50.498Z,24.55
2023-03-28T20:59:57.757Z,23.20
2023-03-28T21:05:00.330Z,24.80
2023-03-28T21:10:05.477Z,25.77
2023-03-28T21:20:11.537Z,34.73
2023-03-28T21:25:14.509Z,18.40
2023-03-28T21:30:17.306Z,22.43
2023-03-28T21:35:20.356Z,21.90
2023-03-28T21:40:23.339Z,23.33
2023-03-28T21:45:26.578Z,17.67
2023-03-28T21:50:31.811Z,28.25
2023-03-28T21:55:34.771Z,27.80
2023-03-28T22:00:37.726Z,23.20
2023-03-28T22:05:43.136Z,32.30
2023-03-28T22:10:48.698Z,40.22
2023-03-28T22:15:52.931Z,42.85
2023-03-28T22:20:55.834Z,42.90
2023-03-28T22:25:58.876Z,42.27
2023-03-28T22:31:01.770Z,38.38
2023-03-28T22:36:07.895Z,36.28
2023-03-28T22:41:11.373Z,37.97
2023-03-28T22:46:16.607Z,43.38
2023-03-28T22:51:19.290Z,43.30
2023-03-28T22:56:24.540Z,42.33
2023-03-28T23:01:29.169Z,40.05
2023-03-28T23:06:31.910Z,37.97
2023-03-28T23:11:37.594Z,36.63
2023-03-28T23:16:41.786Z,32.65
2023-03-28T23:21:44.429Z,30.10
2023-03-28T23:26:47.420Z,29.60
2023-03-28T23:31:50.682Z,32.25
2023-03-28T23:36:57.266Z,37.22
2023-03-28T23:41:59.957Z,36.25
2023-03-28T23:47:02.707Z,38.67
2023-03-28T23:52:05.678Z,37.80
2023-03-28T23:57:09.179Z,25.92
